Time;durP1;ratioP1;P1;durP2;ratioP2;P2;SDS_P1;SDS_P2;PMS_P1;PMS_P2;Temp;Humidity;BMP_temperature;BMP_pressure;BME280_temperature;BME280_humidity;BME280_pressure;Samples;Min_cycle;Max_cycle;Signal;HPM_P1;HPM_P2
2022/01/30 00:00:06;;;;;;;;;;;;;;;;;;1038650;28;930;-41
2022/01/30 00:00:39;;;;;;;;;;;;;;;;;;1038706;28;696;-41
2022/01/30 00:01:09;;;;;;;;;;;;;;;;;;1038843;28;1056;-41
2022/01/30 00:01:40;;;;;;;;;;;;;;;;;;1038644;28;1149;-41
2022/01/30 00:02:10;;;;;;;;;;;;;;;;;;1038920;28;887;-41
2022/01/30 00:02:40;;;;;;;;;;;;;;;;;;1038668;28;1075;-41
2022/01/30 00:03:11;;;;;;;;;;;;;;;;;;1038785;28;870;-41
2022/01/30 00:03:41;;;;;;;;;;;;;;;;;;1038892;28;1140;-42
2022/01/30 00:04:12;;;;;;;;;;;;;;;;;;1038555;28;1005;-41
2022/01/30 00:04:42;;;;;;;;;;;;;;;;;;1038864;28;842;-42
2022/01/30 00:05:12;;;;;;;;;;;;;;;;;;1038690;28;934;-41
2022/01/30 00:05:43;;;;;;;;;;;;;;;;;;1038722;28;1001;-41
2022/01/30 00:06:13;;;;;;;;;;;;;;;;;;1038745;28;937;-41
2022/01/30 00:06:43;;;;;;;;;;;;;;;;;;1038590;28;926;-41
2022/01/30 00:07:14;;;;;;;;;;;;;;;;;;1038862;28;811;-41
2022/01/30 00:07:44;;;;;;;;;;;;;;;;;;1038716;28;1020;-41
2022/01/30 00:08:15;;;;;;;;;;;;;;;;;;1038633;28;946;-42
2022/01/30 00:08:45;;;;;;;;;;;;;;;;;;1038939;28;890;-42
2022/01/30 00:09:19;;;;;;;;;;;;;;;;;;1038593;28;907;-42
2022/01/30 00:09:50;;;;;;;;;;;;;;;;;;1038783;28;981;-42
2022/01/30 00:10:21;;;;;;;;;;;;;;;;;;1038703;28;969;-42
2022/01/30 00:10:57;;;;;;;;;;;;;;;;;;1038529;28;1068;-41
2022/01/30 00:11:33;;;;;;;;;;;;;;;;;;1038756;28;827;-41
2022/01/30 00:12:05;;;;;;;;;;;;;;;;;;1038823;28;1001;-42
2022/01/30 00:12:48;;;;;;;;;;;;;;;;;;1038579;28;932;-42
2022/01/30 00:13:20;;;;;;;;;;;;;;;;;;1038573;28;1025;-41
2022/01/30 00:13:51;;;;;;;;;;;;;;;;;;1038846;28;890;-41
2022/01/30 00:14:23;;;;;;;;;;;;;;;;;;1038675;28;1252;-42
2022/01/30 00:14:55;;;;;;;;;;;;;;;;;;1038579;28;985;-42
2022/01/30 00:16:08;;;;;;;;;;;;;;;;;;1038842;28;949;-41
2022/01/30 00:16:39;;;;;;;;;;;;;;;;;;1038551;28;1021;-42
2022/01/30 00:17:17;;;;;;;;;;;;;;;;;;1038950;28;945;-41
2022/01/30 00:18:06;;;;;;;;;;;;;;;;;;1039545;28;1063;-42
2022/01/30 00:18:49;;;;;;;;;;;;;;;;;;1039652;28;949;-42
2022/01/30 00:19:26;;;;;;;;;;;;;;;;;;1039611;28;969;-42
2022/01/30 00:20:04;;;;;;;;;;;;;;;;;;1039308;28;950;-42
2022/01/30 00:20:35;;;;;;;;;;;;;;;;;;1039547;28;859;-41
2022/01/30 00:21:33;;;;;;;;;;;;;;;;;;1039439;28;1072;-42
2022/01/30 00:22:35;;;;;;;;;;;;;;;;;;1039719;28;921;-42
2022/01/30 00:23:45;;;;;;;;;;;;;;;;;;1035439;28;1016;-42
2022/01/30 00:24:13;;;;;;;;;;;;;;;;;;1033142;28;1267;-41
2022/01/30 00:25:07;;;;;;;;;;;;;;;;;;1035508;28;961;-41
2022/01/30 00:25:50;;;;;;;;;;;;;;;;;;1035446;28;1587;-41
2022/01/30 00:26:27;;;;;;;;;;;;;;;;;;1035591;28;887;-41
2022/01/30 00:26:58;;;;;;;;;;;;;;;;;;1035578;28;974;-41
2022/01/30 00:27:32;;;;;;;;;;;;;;;;;;1035172;28;1008;-41
2022/01/30 00:28:06;;;;;;;;;;;;;;;;;;1037261;28;1245;-41
2022/01/30 00:28:37;;;;;;;;;;;;;;;;;;1035666;28;1387;-41
2022/01/30 00:29:08;;;;;;;;;;;;;;;;;;1034965;28;922;-41
2022/01/30 00:29:39;;;;;;;;;;;;;;;;;;1035773;28;815;-41
2022/01/30 00:30:11;;;;;;;;;;;;;;;;;;1034872;28;1107;-41
2022/01/30 00:30:41;;;;;;;;;;;;;;;;;;1035056;28;894;-41
2022/01/30 00:31:14;;;;;;;;;;;;;;;;;;1035086;28;962;-41
2022/01/30 00:31:47;;;;;;;;;;;;;;;;;;1034912;28;962;-41
2022/01/30 00:32:17;;;;;;;;;;;;;;;;;;1035615;28;855;-41
2022/01/30 00:32:47;;;;;;;;;;;;;;;;;;1035354;28;943;-41
2022/01/30 00:33:19;;;;;;;;;;;;;;;;;;1030797;28;989;-40
2022/01/30 00:33:52;;;;;;;;;;;;;;;;;;1031192;28;866;-41
2022/01/30 00:34:23;;;;;;;;;;;;;;;;;;1031032;28;1182;-41
2022/01/30 00:34:53;;;;;;;;;;;;;;;;;;1031217;28;1236;-41
2022/01/30 00:35:24;;;;;;;;;;;;;;;;;;1031068;28;1181;-41
2022/01/30 00:35:54;;;;;;;;;;;;;;;;;;1030839;28;1049;-41
2022/01/30 00:36:24;;;;;;;;;;;;;;;;;;1031186;28;897;-41
2022/01/30 00:36:55;;;;;;;;;;;;;;;;;;1030820;28;1693;-41
2022/01/30 00:37:25;;;;;;;;;;;;;;;;;;1035186;28;997;-41
2022/01/30 00:37:58;;;;;;;;;;;;;;;;;;1027031;28;1173;-41
2022/01/30 00:38:28;;;;;;;;;;;;;;;;;;1026921;28;1087;-39
2022/01/30 00:38:59;;;;;;;;;;;;;;;;;;1026950;28;1960;-41
2022/01/30 00:39:29;;;;;;;;;;;;;;;;;;1027502;28;1015;-41
2022/01/30 00:40:00;;;;;;;;;;;;;;;;;;1035143;28;946;-41
2022/01/30 00:40:30;;;;;;;;;;;;;;;;;;1035439;28;965;-41
2022/01/30 00:41:00;;;;;;;;;;;;;;;;;;1035233;28;927;-40
2022/01/30 00:41:31;;;;;;;;;;;;;;;;;;1035458;28;870;-41
2022/01/30 00:42:01;;;;;;;;;;;;;;;;;;1034967;28;1121;-41
2022/01/30 00:42:31;;;;;;;;;;;;;;;;;;1034877;28;1049;-41
2022/01/30 00:43:02;;;;;;;;;;;;;;;;;;1035231;28;965;-41
2022/01/30 00:43:33;;;;;;;;;;;;;;;;;;1034936;28;950;-41
2022/01/30 00:44:03;;;;;;;;;;;;;;;;;;1035362;28;858;-41
2022/01/30 00:44:33;;;;;;;;;;;;;;;;;;1035498;28;950;-41
2022/01/30 00:45:04;;;;;;;;;;;;;;;;;;1035170;28;990;-41
2022/01/30 00:45:35;;;;;;;;;;;;;;;;;;1031075;28;1018;-41
2022/01/30 00:46:05;;;;;;;;;;;;;;;;;;1030871;28;989;-41
2022/01/30 00:46:38;;;;;;;;;;;;;;;;;;1030945;28;1005;-40
2022/01/30 00:47:13;;;;;;;;;;;;;;;;;;1027483;28;1207;-41
2022/01/30 00:47:43;;;;;;;;;;;;;;;;;;1026894;28;1130;-41
2022/01/30 00:48:13;;;;;;;;;;;;;;;;;;1022705;29;1265;-41
2022/01/30 00:48:44;;;;;;;;;;;;;;;;;;1023509;28;1198;-41
2022/01/30 00:49:14;;;;;;;;;;;;;;;;;;1022706;29;1241;-41
2022/01/30 00:49:44;;;;;;;;;;;;;;;;;;1019155;29;2298;-42
2022/01/30 00:50:15;;;;;;;;;;;;;;;;;;1022643;29;1372;-41
2022/01/30 00:50:45;;;;;;;;;;;;;;;;;;1026775;28;1511;-41
2022/01/30 00:51:16;;;;;;;;;;;;;;;;;;1026919;28;1141;-41
2022/01/30 00:51:47;;;;;;;;;;;;;;;;;;1026835;28;1018;-41
2022/01/30 00:52:17;;;;;;;;;;;;;;;;;;1023064;28;874;-41
2022/01/30 00:52:53;;;;;;;;;;;;;;;;;;1026985;28;1427;-40
2022/01/30 00:53:23;;;;;;;;;;;;;;;;;;1030795;28;1003;-41
2022/01/30 00:53:53;;;;;;;;;;;;;;;;;;1031087;28;842;-41
2022/01/30 00:54:24;;;;;;;;;;;;;;;;;;1027304;28;1579;-41
2022/01/30 00:54:54;;;;;;;;;;;;;;;;;;1030948;28;796;-41
2022/01/30 00:55:26;;;;;;;;;;;;;;;;;;1030935;28;1100;-41
2022/01/30 00:55:56;;;;;;;;;;;;;;;;;;1031155;28;907;-41
2022/01/30 00:56:27;;;;;;;;;;;;;;;;;;1035383;28;871;-41
2022/01/30 00:56:57;;;;;;;;;;;;;;;;;;1035347;28;985;-41
2022/01/30 00:57:27;;;;;;;;;;;;;;;;;;1035262;28;854;-41
2022/01/30 00:57:58;;;;;;;;;;;;;;;;;;1030943;28;1232;-41
2022/01/30 00:58:29;;;;;;;;;;;;;;;;;;1030685;28;1394;-41
2022/01/30 00:58:59;;;;;;;;;;;;;;;;;;1026816;28;2022;-41
2022/01/30 00:59:29;;;;;;;;;;;;;;;;;;1022965;28;1260;-42
2022/01/30 01:00:00;;;;;;;;;;;;;;;;;;1022064;28;1238;-41
2022/01/30 01:00:30;;;;;;;;;;;;;;;;;;1026821;28;1192;-41
2022/01/30 01:01:01;;;;;;;;;;;;;;;;;;1030765;28;922;-41
2022/01/30 01:01:32;;;;;;;;;;;;;;;;;;1028440;28;1113;-41
2022/01/30 01:02:03;;;;;;;;;;;;;;;;;;1035064;28;1342;-42
2022/01/30 01:02:33;;;;;;;;;;;;;;;;;;1034687;28;1341;-41
2022/01/30 01:03:04;;;;;;;;;;;;;;;;;;1035160;28;834;-41
2022/01/30 01:03:35;;;;;;;;;;;;;;;;;;1034630;28;917;-41
2022/01/30 01:04:05;;;;;;;;;;;;;;;;;;1035040;28;1218;-41
2022/01/30 01:04:36;;;;;;;;;;;;;;;;;;1039147;28;1087;-41
2022/01/30 01:05:06;;;;;;;;;;;;;;;;;;1038761;28;905;-41
2022/01/30 01:05:38;;;;;;;;;;;;;;;;;;1039386;28;897;-41
2022/01/30 01:06:08;;;;;;;;;;;;;;;;;;1038865;28;958;-41
2022/01/30 01:06:40;;;;;;;;;;;;;;;;;;1039115;28;957;-41
2022/01/30 01:07:17;;;;;;;;;;;;;;;;;;1039051;28;973;-41
2022/01/30 01:07:49;;;;;;;;;;;;;;;;;;1035965;28;1124;-40
2022/01/30 01:08:31;;;;;;;;;;;;;;;;;;1034817;28;1331;-41
2022/01/30 01:09:03;;;;;;;;;;;;;;;;;;1034978;28;1028;-41
2022/01/30 01:09:37;;;;;;;;;;;;;;;;;;1032921;28;870;-41
2022/01/30 01:10:15;;;;;;;;;;;;;;;;;;1032266;28;1013;-41
2022/01/30 01:10:55;;;;;;;;;;;;;;;;;;1034300;28;938;-41
2022/01/30 01:23:44;;;;;;;;;;;;;;;;;;1034984;28;989;-41
2022/01/30 01:24:14;;;;;;;;;;;;;;;;;;1030461;28;1536;-41
2022/01/30 01:24:45;;;;;;;;;;;;;;;;;;1034023;28;942;-41
2022/01/30 01:25:15;;;;;;;;;;;;;;;;;;1034818;28;964;-41
2022/01/30 01:25:45;;;;;;;;;;;;;;;;;;1030683;28;1340;-41
2022/01/30 01:26:16;;;;;;;;;;;;;;;;;;1034922;28;977;-41
2022/01/30 01:26:47;;;;;;;;;;;;;;;;;;1030609;28;1678;-41
2022/01/30 01:27:17;;;;;;;;;;;;;;;;;;1030845;28;1174;-41
2022/01/30 01:27:47;;;;;;;;;;;;;;;;;;1030717;28;1076;-41
2022/01/30 01:28:18;;;;;;;;;;;;;;;;;;1030301;28;1071;-41
2022/01/30 01:28:49;;;;;;;;;;;;;;;;;;1030879;28;1172;-41
2022/01/30 01:29:19;;;;;;;;;;;;;;;;;;1030636;28;1178;-41
2022/01/30 01:29:50;;;;;;;;;;;;;;;;;;1026709;28;1865;-42
2022/01/30 01:30:20;;;;;;;;;;;;;;;;;;1022784;28;1126;-41
2022/01/30 01:30:51;;;;;;;;;;;;;;;;;;1026789;28;844;-41
2022/01/30 01:31:22;;;;;;;;;;;;;;;;;;1030917;28;978;-42
2022/01/30 01:31:53;;;;;;;;;;;;;;;;;;1034950;28;911;-41
2022/01/30 01:32:23;;;;;;;;;;;;;;;;;;1039154;28;992;-42
2022/01/30 01:32:53;;;;;;;;;;;;;;;;;;1039322;28;1126;-41
2022/01/30 01:33:29;;;;;;;;;;;;;;;;;;1034625;28;1219;-41
2022/01/30 01:34:16;;;;;;;;;;;;;;;;;;1034978;28;807;-41
2022/01/30 01:34:47;;;;;;;;;;;;;;;;;;1035044;28;938;-41
2022/01/30 01:35:17;;;;;;;;;;;;;;;;;;1038096;28;917;-41
2022/01/30 01:35:48;;;;;;;;;;;;;;;;;;1039224;28;938;-41
2022/01/30 01:36:18;;;;;;;;;;;;;;;;;;1034803;28;1469;-41
2022/01/30 01:36:49;;;;;;;;;;;;;;;;;;1034573;28;997;-41
2022/01/30 01:37:19;;;;;;;;;;;;;;;;;;1035046;28;787;-40
2022/01/30 01:37:53;;;;;;;;;;;;;;;;;;1034838;28;931;-41
2022/01/30 01:38:24;;;;;;;;;;;;;;;;;;1039027;28;1243;-41
2022/01/30 01:38:55;;;;;;;;;;;;;;;;;;1034746;28;1911;-41
2022/01/30 01:39:25;;;;;;;;;;;;;;;;;;1030636;28;1184;-41
2022/01/30 01:39:55;;;;;;;;;;;;;;;;;;1026817;28;1389;-41
2022/01/30 01:40:26;;;;;;;;;;;;;;;;;;1022583;28;1126;-41
2022/01/30 01:40:56;;;;;;;;;;;;;;;;;;1022681;28;1193;-41
2022/01/30 01:41:29;;;;;;;;;;;;;;;;;;1022866;28;1803;-41
2022/01/30 01:42:00;;;;;;;;;;;;;;;;;;1027304;28;971;-41
2022/01/30 01:42:33;;;;;;;;;;;;;;;;;;1026917;28;820;-42
2022/01/30 01:43:03;;;;;;;;;;;;;;;;;;1027415;28;1595;-41
2022/01/30 01:43:35;;;;;;;;;;;;;;;;;;1026592;28;1145;-41
2022/01/30 01:44:13;;;;;;;;;;;;;;;;;;1023175;28;1225;-41
2022/01/30 01:44:51;;;;;;;;;;;;;;;;;;1028105;28;815;-41
2022/01/30 01:45:24;;;;;;;;;;;;;;;;;;1029010;28;1148;-41
2022/01/30 01:45:57;;;;;;;;;;;;;;;;;;1033006;28;1013;-41
2022/01/30 01:46:32;;;;;;;;;;;;;;;;;;1030750;28;1157;-41
2022/01/30 01:47:03;;;;;;;;;;;;;;;;;;1032128;28;939;-41
2022/01/30 01:47:34;;;;;;;;;;;;;;;;;;1030390;28;1177;-41
2022/01/30 01:48:11;;;;;;;;;;;;;;;;;;1031811;28;836;-41
2022/01/30 01:48:43;;;;;;;;;;;;;;;;;;1030670;28;1439;-41
2022/01/30 01:49:20;;;;;;;;;;;;;;;;;;1031783;28;950;-41
2022/01/30 01:49:51;;;;;;;;;;;;;;;;;;1034733;28;1648;-41
2022/01/30 01:50:38;;;;;;;;;;;;;;;;;;1030610;28;1306;-41
2022/01/30 01:51:18;;;;;;;;;;;;;;;;;;1030534;28;1247;-41
2022/01/30 01:52:01;;;;;;;;;;;;;;;;;;1030522;28;1236;-42
2022/01/30 01:52:32;;;;;;;;;;;;;;;;;;1034589;28;893;-41
2022/01/30 01:53:03;;;;;;;;;;;;;;;;;;1030840;28;1342;-41
2022/01/30 01:53:33;;;;;;;;;;;;;;;;;;1032293;28;957;-41
2022/01/30 01:54:04;;;;;;;;;;;;;;;;;;1034860;28;1286;-41
2022/01/30 01:54:34;;;;;;;;;;;;;;;;;;1034736;28;1287;-41
2022/01/30 01:55:05;;;;;;;;;;;;;;;;;;1030462;28;1303;-41
2022/01/30 01:55:36;;;;;;;;;;;;;;;;;;1026729;28;1153;-41
2022/01/30 01:56:07;;;;;;;;;;;;;;;;;;1026767;28;1221;-41
2022/01/30 01:56:39;;;;;;;;;;;;;;;;;;1026584;28;1236;-41
2022/01/30 01:57:18;;;;;;;;;;;;;;;;;;1024486;28;1390;-41
2022/01/30 01:57:53;;;;;;;;;;;;;;;;;;1024641;28;1303;-41
2022/01/30 01:58:44;;;;;;;;;;;;;;;;;;1030432;28;1915;-42
2022/01/30 01:59:35;;;;;;;;;;;;;;;;;;1031936;28;1499;-42
2022/01/30 02:00:19;;;;;;;;;;;;;;;;;;1030759;28;1224;-42
2022/01/30 02:00:49;;;;;;;;;;;;;;;;;;1030689;28;870;-42
2022/01/30 02:01:21;;;;;;;;;;;;;;;;;;1032593;28;1326;-41
2022/01/30 02:01:53;;;;;;;;;;;;;;;;;;1030587;28;1069;-41
2022/01/30 02:02:24;;;;;;;;;;;;;;;;;;1034660;28;800;-42
2022/01/30 02:02:55;;;;;;;;;;;;;;;;;;1034797;28;1220;-41
2022/01/30 02:03:26;;;;;;;;;;;;;;;;;;1034530;28;1138;-41
2022/01/30 02:03:57;;;;;;;;;;;;;;;;;;1034878;28;795;-41
2022/01/30 02:04:27;;;;;;;;;;;;;;;;;;1034755;28;926;-41
2022/01/30 02:05:02;;;;;;;;;;;;;;;;;;1034496;28;1300;-41
2022/01/30 02:05:34;;;;;;;;;;;;;;;;;;1034880;28;1076;-41
2022/01/30 02:06:08;;;;;;;;;;;;;;;;;;1034467;28;1029;-41
2022/01/30 02:06:38;;;;;;;;;;;;;;;;;;1034533;28;934;-41
2022/01/30 02:08:31;;;;;;;;;;;;;;;;;;1034472;28;1272;-41
2022/01/30 02:09:08;;;;;;;;;;;;;;;;;;1030541;28;1225;-41
2022/01/30 02:09:40;;;;;;;;;;;;;;;;;;1030719;28;946;-41
2022/01/30 02:10:18;;;;;;;;;;;;;;;;;;1032363;28;997;-41
2022/01/30 02:11:36;;;;;;;;;;;;;;;;;;1034843;28;1172;-41
2022/01/30 02:12:18;;;;;;;;;;;;;;;;;;1034788;28;1613;-41
2022/01/30 02:12:52;;;;;;;;;;;;;;;;;;1034532;28;1169;-41
2022/01/30 02:14:24;;;;;;;;;;;;;;;;;;1030525;28;1201;-41
2022/01/30 02:23:57;;;;;;;;;;;;;;;;;;1034456;28;1691;-41
2022/01/30 02:24:07;;;;;;;;;;;;;;;;;;1030666;28;1006;-41
2022/01/30 02:26:02;;;;;;;;;;;;;;;;;;1030246;28;1205;-42
2022/01/30 02:26:36;;;;;;;;;;;;;;;;;;1029524;28;1197;-41
2022/01/30 02:27:07;;;;;;;;;;;;;;;;;;1029737;28;1001;-41
2022/01/30 02:27:38;;;;;;;;;;;;;;;;;;1027334;28;1672;-41
2022/01/30 02:28:15;;;;;;;;;;;;;;;;;;1028496;28;1340;-42
2022/01/30 02:28:46;;;;;;;;;;;;;;;;;;1034471;28;1196;-41
2022/01/30 02:29:18;;;;;;;;;;;;;;;;;;1030375;28;1502;-41
2022/01/30 02:29:49;;;;;;;;;;;;;;;;;;1027973;28;1482;-41
2022/01/30 02:30:20;;;;;;;;;;;;;;;;;;1030380;28;997;-41
2022/01/30 02:31:03;;;;;;;;;;;;;;;;;;1027102;28;1240;-41
2022/01/30 02:31:38;;;;;;;;;;;;;;;;;;1028420;28;1114;-42
2022/01/30 02:32:09;;;;;;;;;;;;;;;;;;1026706;28;1235;-41
2022/01/30 02:32:39;;;;;;;;;;;;;;;;;;1028371;28;1271;-42
2022/01/30 02:33:10;;;;;;;;;;;;;;;;;;1027255;28;1162;-42
2022/01/30 02:33:41;;;;;;;;;;;;;;;;;;1026531;28;2237;-41
2022/01/30 02:34:11;;;;;;;;;;;;;;;;;;1026502;28;942;-42
2022/01/30 02:34:42;;;;;;;;;;;;;;;;;;1030724;28;1659;-41
2022/01/30 02:35:12;;;;;;;;;;;;;;;;;;1030477;28;1145;-42
2022/01/30 02:35:43;;;;;;;;;;;;;;;;;;1030460;28;1340;-41
2022/01/30 02:36:13;;;;;;;;;;;;;;;;;;1030649;28;945;-42
2022/01/30 02:36:47;;;;;;;;;;;;;;;;;;1030398;28;1165;-42
2022/01/30 02:37:18;;;;;;;;;;;;;;;;;;1027071;28;1284;-41
2022/01/30 02:37:52;;;;;;;;;;;;;;;;;;1026436;28;1480;-42
2022/01/30 02:38:23;;;;;;;;;;;;;;;;;;1027372;28;993;-42
2022/01/30 02:38:57;;;;;;;;;;;;;;;;;;1027302;28;1902;-42
2022/01/30 02:39:28;;;;;;;;;;;;;;;;;;1031264;28;967;-42
2022/01/30 02:39:58;;;;;;;;;;;;;;;;;;1034049;28;949;-41
2022/01/30 02:40:36;;;;;;;;;;;;;;;;;;1031027;28;1165;-42
2022/01/30 02:41:06;;;;;;;;;;;;;;;;;;1034480;28;993;-42
2022/01/30 02:41:44;;;;;;;;;;;;;;;;;;1034383;28;1158;-41
2022/01/30 02:42:19;;;;;;;;;;;;;;;;;;1030505;28;1118;-41
2022/01/30 02:42:53;;;;;;;;;;;;;;;;;;1030531;28;1260;-41
2022/01/30 02:43:32;;;;;;;;;;;;;;;;;;1030311;28;1289;-41
2022/01/30 02:44:10;;;;;;;;;;;;;;;;;;1032829;28;819;-42
2022/01/30 02:44:47;;;;;;;;;;;;;;;;;;1034610;28;1073;-42
2022/01/30 02:45:21;;;;;;;;;;;;;;;;;;1033527;28;1444;-42
2022/01/30 02:46:08;;;;;;;;;;;;;;;;;;1030378;28;1799;-42
2022/01/30 02:46:43;;;;;;;;;;;;;;;;;;1026498;28;1141;-41
2022/01/30 02:47:24;;;;;;;;;;;;;;;;;;1025699;28;1362;-41
2022/01/30 02:48:13;;;;;;;;;;;;;;;;;;1026503;28;1161;-41
2022/01/30 02:48:52;;;;;;;;;;;;;;;;;;1026574;28;1336;-41
2022/01/30 02:50:10;;;;;;;;;;;;;;;;;;1034053;28;1155;-41
2022/01/30 02:51:19;;;;;;;;;;;;;;;;;;1030527;28;1168;-41
2022/01/30 02:51:55;;;;;;;;;;;;;;;;;;1030381;28;930;-41
2022/01/30 02:52:25;;;;;;;;;;;;;;;;;;1028210;28;1356;-41
2022/01/30 02:52:57;;;;;;;;;;;;;;;;;;1031475;28;918;-41
2022/01/30 02:53:31;;;;;;;;;;;;;;;;;;1034362;28;910;-41
2022/01/30 02:54:05;;;;;;;;;;;;;;;;;;1034607;28;890;-41
2022/01/30 02:54:40;;;;;;;;;;;;;;;;;;1034587;28;1544;-41
2022/01/30 02:55:12;;;;;;;;;;;;;;;;;;1030351;28;1200;-41
2022/01/30 02:55:48;;;;;;;;;;;;;;;;;;1034473;28;1196;-41
2022/01/30 02:56:18;;;;;;;;;;;;;;;;;;1030500;28;957;-41
2022/01/30 02:56:48;;;;;;;;;;;;;;;;;;1027105;28;1125;-41
2022/01/30 02:57:19;;;;;;;;;;;;;;;;;;1030570;28;1162;-41
2022/01/30 02:57:50;;;;;;;;;;;;;;;;;;1026748;28;1200;-41
2022/01/30 02:58:21;;;;;;;;;;;;;;;;;;1026300;28;1253;-41
2022/01/30 02:58:51;;;;;;;;;;;;;;;;;;1030556;28;2126;-41
2022/01/30 02:59:22;;;;;;;;;;;;;;;;;;1026184;28;1121;-41
2022/01/30 02:59:52;;;;;;;;;;;;;;;;;;1026599;28;1209;-41
2022/01/30 03:00:23;;;;;;;;;;;;;;;;;;1026531;28;924;-42
2022/01/30 03:00:54;;;;;;;;;;;;;;;;;;1030642;28;847;-42
2022/01/30 03:01:24;;;;;;;;;;;;;;;;;;1034558;28;1132;-42
2022/01/30 03:01:55;;;;;;;;;;;;;;;;;;1038482;28;1203;-41
2022/01/30 03:02:25;;;;;;;;;;;;;;;;;;1038453;28;846;-42
2022/01/30 03:02:55;;;;;;;;;;;;;;;;;;1038709;28;1064;-42
2022/01/30 03:03:26;;;;;;;;;;;;;;;;;;1030173;28;1387;-42
2022/01/30 03:03:56;;;;;;;;;;;;;;;;;;1034792;28;922;-42
2022/01/30 03:04:26;;;;;;;;;;;;;;;;;;1034395;28;982;-42
2022/01/30 03:04:57;;;;;;;;;;;;;;;;;;1034522;28;815;-42
2022/01/30 03:05:27;;;;;;;;;;;;;;;;;;1034879;28;1151;-41
2022/01/30 03:05:59;;;;;;;;;;;;;;;;;;1038317;28;1324;-41
2022/01/30 03:06:30;;;;;;;;;;;;;;;;;;1038656;28;1347;-42
2022/01/30 03:07:00;;;;;;;;;;;;;;;;;;1034388;28;1355;-42
2022/01/30 03:07:39;;;;;;;;;;;;;;;;;;1034153;28;1334;-41
2022/01/30 03:08:11;;;;;;;;;;;;;;;;;;1030529;28;1721;-41
2022/01/30 03:08:41;;;;;;;;;;;;;;;;;;1026318;28;1536;-41
2022/01/30 03:09:12;;;;;;;;;;;;;;;;;;1026520;28;867;-41
2022/01/30 03:09:43;;;;;;;;;;;;;;;;;;1030633;28;1094;-41
2022/01/30 03:10:14;;;;;;;;;;;;;;;;;;1034366;28;1409;-40
2022/01/30 03:10:45;;;;;;;;;;;;;;;;;;1038550;28;890;-42
2022/01/30 03:11:15;;;;;;;;;;;;;;;;;;1034445;28;1164;-41
2022/01/30 03:11:45;;;;;;;;;;;;;;;;;;1030242;28;1240;-41
2022/01/30 03:12:16;;;;;;;;;;;;;;;;;;1030610;28;926;-41
2022/01/30 03:12:46;;;;;;;;;;;;;;;;;;1030215;28;1025;-42
2022/01/30 03:13:17;;;;;;;;;;;;;;;;;;1030394;28;1192;-42
2022/01/30 03:13:47;;;;;;;;;;;;;;;;;;1034528;28;1066;-41
2022/01/30 03:14:18;;;;;;;;;;;;;;;;;;1038064;28;1288;-42
2022/01/30 03:14:48;;;;;;;;;;;;;;;;;;1038822;28;1239;-42
2022/01/30 03:15:18;;;;;;;;;;;;;;;;;;1038191;28;1164;-41
2022/01/30 03:15:49;;;;;;;;;;;;;;;;;;1034461;28;1576;-41
2022/01/30 03:16:21;;;;;;;;;;;;;;;;;;1034466;28;1176;-42
2022/01/30 03:16:51;;;;;;;;;;;;;;;;;;1030216;28;1170;-41
2022/01/30 03:17:21;;;;;;;;;;;;;;;;;;1030438;28;820;-42
2022/01/30 03:17:52;;;;;;;;;;;;;;;;;;1026397;28;1009;-41
2022/01/30 03:18:22;;;;;;;;;;;;;;;;;;1022287;28;1246;-41
2022/01/30 03:18:53;;;;;;;;;;;;;;;;;;1026495;28;1919;-41
2022/01/30 03:19:23;;;;;;;;;;;;;;;;;;1026011;28;884;-42
2022/01/30 03:19:53;;;;;;;;;;;;;;;;;;1026607;28;859;-41
2022/01/30 03:20:24;;;;;;;;;;;;;;;;;;1030264;28;1174;-40
2022/01/30 03:20:54;;;;;;;;;;;;;;;;;;1026310;28;1188;-41
2022/01/30 03:21:25;;;;;;;;;;;;;;;;;;1026400;28;1393;-41
2022/01/30 03:21:55;;;;;;;;;;;;;;;;;;1026272;28;1363;-40
2022/01/30 03:22:26;;;;;;;;;;;;;;;;;;1026329;28;1185;-41
2022/01/30 03:22:59;;;;;;;;;;;;;;;;;;1026685;28;1188;-41
2022/01/30 03:23:29;;;;;;;;;;;;;;;;;;1026289;28;1300;-41
2022/01/30 03:24:00;;;;;;;;;;;;;;;;;;1026902;28;1260;-41
2022/01/30 03:24:37;;;;;;;;;;;;;;;;;;1026439;28;1373;-41
2022/01/30 03:25:22;;;;;;;;;;;;;;;;;;1029285;28;1489;-40
2022/01/30 03:26:22;;;;;;;;;;;;;;;;;;1033048;28;1827;-41
2022/01/30 03:27:19;;;;;;;;;;;;;;;;;;1034976;28;1129;-41
2022/01/30 03:27:58;;;;;;;;;;;;;;;;;;1034967;28;1331;-41
2022/01/30 03:28:33;;;;;;;;;;;;;;;;;;1038371;28;1471;-41
2022/01/30 03:29:16;;;;;;;;;;;;;;;;;;1038313;28;1185;-41
2022/01/30 03:29:51;;;;;;;;;;;;;;;;;;1031846;28;1176;-42
2022/01/30 03:30:47;;;;;;;;;;;;;;;;;;1034202;28;1177;-41
2022/01/30 03:31:39;;;;;;;;;;;;;;;;;;1036843;28;1234;-41
2022/01/30 03:32:10;;;;;;;;;;;;;;;;;;1038453;28;1228;-41
2022/01/30 03:32:40;;;;;;;;;;;;;;;;;;1034217;28;1145;-41
2022/01/30 03:33:11;;;;;;;;;;;;;;;;;;1030462;28;1348;-41
2022/01/30 03:33:41;;;;;;;;;;;;;;;;;;1030225;28;1018;-41
2022/01/30 03:34:12;;;;;;;;;;;;;;;;;;1030319;28;882;-41
2022/01/30 03:34:53;;;;;;;;;;;;;;;;;;1035952;28;1216;-41
2022/01/30 03:35:24;;;;;;;;;;;;;;;;;;1038429;28;968;-40
2022/01/30 03:35:56;;;;;;;;;;;;;;;;;;1034305;28;981;-41
2022/01/30 03:36:27;;;;;;;;;;;;;;;;;;1029891;28;1201;-41
2022/01/30 03:36:57;;;;;;;;;;;;;;;;;;1026510;28;1260;-41
2022/01/30 03:37:27;;;;;;;;;;;;;;;;;;1026338;28;1280;-40
2022/01/30 03:37:58;;;;;;;;;;;;;;;;;;1022450;28;1362;-41
2022/01/30 03:38:29;;;;;;;;;;;;;;;;;;1026195;28;1292;-41
2022/01/30 03:39:00;;;;;;;;;;;;;;;;;;1026305;28;1907;-40
2022/01/30 03:39:31;;;;;;;;;;;;;;;;;;1022639;28;1236;-41
2022/01/30 03:40:02;;;;;;;;;;;;;;;;;;1022537;28;1252;-41
2022/01/30 03:40:33;;;;;;;;;;;;;;;;;;1022511;28;1567;-41
2022/01/30 03:41:05;;;;;;;;;;;;;;;;;;1026705;28;923;-41
2022/01/30 03:41:37;;;;;;;;;;;;;;;;;;1026772;28;1317;-41
2022/01/30 03:42:11;;;;;;;;;;;;;;;;;;1027483;28;1344;-41
2022/01/30 03:42:42;;;;;;;;;;;;;;;;;;1025983;28;1196;-41
2022/01/30 03:43:16;;;;;;;;;;;;;;;;;;1027426;28;1334;-41
2022/01/30 03:43:46;;;;;;;;;;;;;;;;;;1026281;28;1379;-42
2022/01/30 03:44:17;;;;;;;;;;;;;;;;;;1026609;28;1509;-42
2022/01/30 03:44:48;;;;;;;;;;;;;;;;;;1030825;28;803;-41
2022/01/30 03:45:18;;;;;;;;;;;;;;;;;;1034257;28;1174;-40
2022/01/30 03:45:49;;;;;;;;;;;;;;;;;;1034432;28;1311;-40
2022/01/30 03:46:21;;;;;;;;;;;;;;;;;;1030385;28;1658;-41
2022/01/30 03:46:51;;;;;;;;;;;;;;;;;;1026059;28;1193;-40
2022/01/30 03:47:24;;;;;;;;;;;;;;;;;;1022614;28;1170;-41
2022/01/30 03:47:56;;;;;;;;;;;;;;;;;;1026456;28;1040;-41
2022/01/30 03:48:33;;;;;;;;;;;;;;;;;;1023610;28;1259;-41
2022/01/30 03:49:27;;;;;;;;;;;;;;;;;;1024637;28;1172;-41
2022/01/30 03:49:57;;;;;;;;;;;;;;;;;;1034381;28;859;-41
2022/01/30 03:50:28;;;;;;;;;;;;;;;;;;1037440;28;1188;-41
2022/01/30 03:50:59;;;;;;;;;;;;;;;;;;1034052;28;1626;-41
2022/01/30 03:51:29;;;;;;;;;;;;;;;;;;1031211;28;1303;-40
2022/01/30 03:52:05;;;;;;;;;;;;;;;;;;1027157;28;1032;-41
2022/01/30 03:52:40;;;;;;;;;;;;;;;;;;1023913;28;1302;-41
2022/01/30 03:53:11;;;;;;;;;;;;;;;;;;1024676;28;1278;-41
2022/01/30 03:53:41;;;;;;;;;;;;;;;;;;1023600;28;1221;-41
2022/01/30 03:54:12;;;;;;;;;;;;;;;;;;1027553;28;847;-41
2022/01/30 03:54:42;;;;;;;;;;;;;;;;;;1031317;28;1520;-41
2022/01/30 03:55:13;;;;;;;;;;;;;;;;;;1035021;28;958;-41
2022/01/30 03:55:44;;;;;;;;;;;;;;;;;;1039293;28;1314;-41
2022/01/30 03:56:21;;;;;;;;;;;;;;;;;;1038094;28;1388;-41
2022/01/30 03:56:52;;;;;;;;;;;;;;;;;;1031045;28;1187;-41
2022/01/30 03:57:29;;;;;;;;;;;;;;;;;;1031027;28;936;-41
2022/01/30 03:58:00;;;;;;;;;;;;;;;;;;1032151;28;979;-41
2022/01/30 03:58:33;;;;;;;;;;;;;;;;;;1032217;28;1306;-41
2022/01/30 03:59:10;;;;;;;;;;;;;;;;;;1034991;28;2009;-41
2022/01/30 03:59:40;;;;;;;;;;;;;;;;;;1031203;28;1227;-41
2022/01/30 04:00:11;;;;;;;;;;;;;;;;;;1026953;28;1365;-42
2022/01/30 04:00:49;;;;;;;;;;;;;;;;;;1028155;28;768;-42
2022/01/30 04:01:19;;;;;;;;;;;;;;;;;;1032232;28;1220;-41
2022/01/30 04:01:50;;;;;;;;;;;;;;;;;;1036155;28;863;-41
2022/01/30 04:02:21;;;;;;;;;;;;;;;;;;1035273;28;1487;-42
2022/01/30 04:02:52;;;;;;;;;;;;;;;;;;1035144;28;1341;-42
2022/01/30 04:03:22;;;;;;;;;;;;;;;;;;1034968;28;1017;-42
2022/01/30 04:03:52;;;;;;;;;;;;;;;;;;1031358;28;1552;-41
2022/01/30 04:04:22;;;;;;;;;;;;;;;;;;1026812;28;1434;-41
2022/01/30 04:04:53;;;;;;;;;;;;;;;;;;1031404;28;799;-41
2022/01/30 04:05:23;;;;;;;;;;;;;;;;;;1030942;28;1433;-41
2022/01/30 04:05:54;;;;;;;;;;;;;;;;;;1026981;28;1757;-42
2022/01/30 04:06:24;;;;;;;;;;;;;;;;;;1031258;28;955;-42
2022/01/30 04:06:55;;;;;;;;;;;;;;;;;;1027111;28;1425;-42
2022/01/30 04:07:45;;;;;;;;;;;;;;;;;;1033490;28;1016;-41
2022/01/30 04:08:35;;;;;;;;;;;;;;;;;;1036373;28;1318;-41
2022/01/30 04:09:13;;;;;;;;;;;;;;;;;;1034996;28;980;-42
2022/01/30 04:10:00;;;;;;;;;;;;;;;;;;1031046;28;1305;-42
2022/01/30 04:10:41;;;;;;;;;;;;;;;;;;1026904;28;1473;-42
2022/01/30 04:11:29;;;;;;;;;;;;;;;;;;1027181;28;1193;-42
2022/01/30 04:12:20;;;;;;;;;;;;;;;;;;1028183;28;1452;-42
2022/01/30 04:13:09;;;;;;;;;;;;;;;;;;1032693;28;709;-41
2022/01/30 04:14:05;;;;;;;;;;;;;;;;;;1032847;28;1596;-42
2022/01/30 04:15:05;;;;;;;;;;;;;;;;;;1022978;28;1328;-42
2022/01/30 04:15:55;;;;;;;;;;;;;;;;;;1033556;28;1531;-41
2022/01/30 04:16:58;;;;;;;;;;;;;;;;;;1018614;29;1308;-42
2022/01/30 04:18:01;;;;;;;;;;;;;;;;;;1016160;29;958;-41
2022/01/30 04:18:57;;;;;;;;;;;;;;;;;;1035070;28;1910;-42
2022/01/30 04:19:53;;;;;;;;;;;;;;;;;;1035303;28;1240;-41
2022/01/30 04:20:53;;;;;;;;;;;;;;;;;;1030046;28;1136;-41
2022/01/30 04:21:42;;;;;;;;;;;;;;;;;;1024239;28;2152;-40
2022/01/30 04:22:31;;;;;;;;;;;;;;;;;;1022776;28;1039;-41
2022/01/30 04:23:22;;;;;;;;;;;;;;;;;;1018777;29;1217;-41